createdAt,value
2018-09-22T00:00:11.950Z,10.80
2018-09-22T00:02:39.985Z,10.90
2018-09-22T00:05:08.102Z,10.90
2018-09-22T00:07:36.177Z,11.00
2018-09-22T00:10:04.442Z,10.90
2018-09-22T00:12:33.157Z,10.90
2018-09-22T00:15:01.201Z,10.80
2018-09-22T00:17:29.277Z,10.80
2018-09-22T00:19:57.324Z,10.90
2018-09-22T00:22:25.394Z,10.90
2018-09-22T00:24:53.434Z,10.80
2018-09-22T00:27:21.538Z,10.90
2018-09-22T00:29:49.573Z,11.00
2018-09-22T00:32:17.644Z,10.80
2018-09-22T00:34:45.796Z,10.80
2018-09-22T00:37:13.837Z,10.80
2018-09-22T00:39:42.142Z,10.80
2018-09-22T00:42:10.210Z,10.80
2018-09-22T00:44:38.258Z,10.80
2018-09-22T00:47:06.409Z,10.90
2018-09-22T00:49:40.212Z,10.90
2018-09-22T00:52:08.249Z,10.90
2018-09-22T00:54:36.314Z,11.00
2018-09-22T00:57:04.422Z,11.00
2018-09-22T00:59:32.492Z,11.00
2018-09-22T01:02:00.574Z,11.00
2018-09-22T01:04:28.685Z,11.00
2018-09-22T01:06:56.725Z,11.00
2018-09-22T01:09:24.794Z,11.00
2018-09-22T01:11:53.558Z,11.00
2018-09-22T01:14:21.641Z,11.10
2018-09-22T01:16:49.705Z,11.20
2018-09-22T01:19:17.768Z,11.10
2018-09-22T01:21:45.805Z,11.10
2018-09-22T01:24:13.866Z,11.20
2018-09-22T01:26:41.940Z,11.20
2018-09-22T01:29:14.333Z,11.20
2018-09-22T01:31:42.518Z,11.30
2018-09-22T01:34:10.629Z,11.30
2018-09-22T01:36:38.947Z,11.40
2018-09-22T01:39:07.862Z,11.30
2018-09-22T01:41:35.996Z,11.40
2018-09-22T01:44:04.067Z,11.60
2018-09-22T01:46:32.125Z,11.50
2018-09-22T01:49:00.243Z,11.40
2018-09-22T01:51:28.313Z,11.30
2018-09-22T01:53:56.374Z,11.40
2018-09-22T01:56:24.429Z,11.40
2018-09-22T01:58:52.480Z,11.40
2018-09-22T02:01:20.577Z,11.50
2018-09-22T02:03:48.645Z,11.40
2018-09-22T02:06:16.710Z,11.40
2018-09-22T02:08:44.793Z,11.30
2018-09-22T02:11:13.161Z,11.30
2018-09-22T02:13:41.499Z,11.30
2018-09-22T02:16:09.862Z,11.30
2018-09-22T02:18:37.902Z,11.20
2018-09-22T02:21:06.345Z,11.20
2018-09-22T02:23:34.397Z,11.10
2018-09-22T02:26:02.463Z,11.10
2018-09-22T02:28:30.577Z,11.10
2018-09-22T02:30:58.714Z,11.00
2018-09-22T02:33:26.815Z,11.00
2018-09-22T02:35:54.915Z,11.00
2018-09-22T02:38:22.986Z,11.00
2018-09-22T02:40:51.154Z,11.00
2018-09-22T02:43:19.224Z,11.00
2018-09-22T02:45:47.302Z,11.10
2018-09-22T02:48:15.343Z,11.10
2018-09-22T02:50:43.410Z,11.00
2018-09-22T02:53:11.597Z,11.00
2018-09-22T02:55:39.641Z,11.00
2018-09-22T02:58:07.697Z,11.00
2018-09-22T03:00:35.842Z,10.90
2018-09-22T03:03:03.957Z,10.90
2018-09-22T03:05:32.042Z,11.00
2018-09-22T03:08:00.162Z,11.00
2018-09-22T03:10:28.239Z,10.90
2018-09-22T03:12:56.299Z,10.80
2018-09-22T03:15:24.462Z,10.80
2018-09-22T03:17:52.466Z,10.80
2018-09-22T03:20:20.522Z,10.80
2018-09-22T03:22:48.607Z,10.80
2018-09-22T03:25:16.714Z,10.80
2018-09-22T03:27:44.821Z,10.80
2018-09-22T03:30:12.891Z,10.80
2018-09-22T03:32:40.981Z,10.90
2018-09-22T03:35:09.097Z,10.80
2018-09-22T03:37:37.166Z,10.80
2018-09-22T03:40:05.249Z,10.80
2018-09-22T03:42:33.304Z,10.80
2018-09-22T03:45:01.381Z,10.80
2018-09-22T03:47:29.462Z,10.80
2018-09-22T03:49:57.771Z,10.70
2018-09-22T03:52:25.799Z,10.80
2018-09-22T03:54:53.866Z,10.60
2018-09-22T03:57:21.910Z,10.60
2018-09-22T03:59:49.957Z,10.60
2018-09-22T04:02:18.146Z,10.60
2018-09-22T04:04:46.261Z,10.60
2018-09-22T04:07:14.379Z,10.60
2018-09-22T04:09:42.422Z,10.50
2018-09-22T04:12:10.477Z,10.50
2018-09-22T04:14:38.545Z,10.40
2018-09-22T04:17:06.626Z,10.30
2018-09-22T04:19:34.682Z,10.40
2018-09-22T04:22:02.761Z,10.50
2018-09-22T04:24:30.821Z,10.40
2018-09-22T04:26:58.937Z,10.50
2018-09-22T04:29:27.145Z,10.40
2018-09-22T04:31:55.235Z,10.50
2018-09-22T04:34:23.290Z,10.40
2018-09-22T04:36:51.334Z,10.40
2018-09-22T04:39:19.413Z,10.50
2018-09-22T04:41:47.858Z,10.50
2018-09-22T04:44:15.910Z,10.40
2018-09-22T04:46:43.976Z,10.50
2018-09-22T04:49:12.597Z,10.60
2018-09-22T04:51:40.637Z,10.50
2018-09-22T04:54:08.789Z,10.40
2018-09-22T04:56:36.864Z,10.40
2018-09-22T04:59:04.944Z,10.40
2018-09-22T05:01:33.269Z,10.40
2018-09-22T05:04:03.150Z,10.30
2018-09-22T05:06:32.066Z,10.50
2018-09-22T05:09:00.180Z,10.40
2018-09-22T05:11:28.221Z,10.50
2018-09-22T05:13:56.271Z,10.50
2018-09-22T05:16:24.345Z,10.50
2018-09-22T05:18:52.406Z,10.50
2018-09-22T05:21:20.487Z,10.50
2018-09-22T05:23:48.541Z,10.60
2018-09-22T05:26:17.201Z,10.60
2018-09-22T05:28:45.233Z,10.70
2018-09-22T05:31:13.343Z,10.70
2018-09-22T05:33:41.391Z,10.70
2018-09-22T05:36:09.485Z,10.60
2018-09-22T05:38:37.513Z,10.70
2018-09-22T05:41:05.598Z,10.70
2018-09-22T05:43:33.657Z,10.70
2018-09-22T05:46:01.902Z,10.60
2018-09-22T05:48:29.959Z,10.60
2018-09-22T05:50:58.034Z,10.60
2018-09-22T05:53:26.097Z,10.70
2018-09-22T05:55:54.141Z,10.70
2018-09-22T05:58:22.187Z,10.60
2018-09-22T06:00:50.252Z,10.60
2018-09-22T06:03:18.294Z,10.60
2018-09-22T06:05:46.361Z,10.70
2018-09-22T06:08:15.127Z,10.70
2018-09-22T06:10:43.163Z,10.70
2018-09-22T06:13:11.489Z,10.70
2018-09-22T06:15:39.530Z,11.30
2018-09-22T06:18:07.592Z,11.50
2018-09-22T06:20:35.651Z,11.80
2018-09-22T06:23:03.742Z,12.10
2018-09-22T06:25:31.777Z,12.20
2018-09-22T06:27:59.844Z,12.30
2018-09-22T06:30:27.890Z,12.00
2018-09-22T06:32:55.937Z,12.20
2018-09-22T06:35:24.006Z,12.30
2018-09-22T06:37:52.294Z,12.40
2018-09-22T06:40:20.398Z,12.70
2018-09-22T06:42:48.467Z,12.60
2018-09-22T06:45:16.543Z,12.90
2018-09-22T06:47:44.601Z,12.60
2018-09-22T06:50:12.691Z,12.70
2018-09-22T06:52:40.914Z,12.30
2018-09-22T06:55:08.963Z,12.40
2018-09-22T06:57:37.037Z,12.20
2018-09-22T07:00:05.616Z,12.60
2018-09-22T07:02:33.688Z,12.40
2018-09-22T07:05:01.782Z,12.70
2018-09-22T07:07:29.841Z,12.60
2018-09-22T07:09:57.918Z,12.80
2018-09-22T07:12:25.981Z,13.10
2018-09-22T07:14:54.031Z,12.90
2018-09-22T07:17:22.090Z,13.10
2018-09-22T07:19:50.151Z,12.90
2018-09-22T07:22:23.673Z,12.60
2018-09-22T07:24:51.718Z,12.60
2018-09-22T07:27:19.764Z,12.80
2018-09-22T07:29:47.813Z,13.20
2018-09-22T07:32:15.882Z,13.20
2018-09-22T07:34:43.932Z,13.30
2018-09-22T07:37:12.169Z,13.40
2018-09-22T07:39:40.238Z,13.40
2018-09-22T07:42:08.309Z,13.80
2018-09-22T07:44:36.375Z,13.60
2018-09-22T07:47:04.425Z,13.50
2018-09-22T07:49:32.492Z,13.30
2018-09-22T07:52:00.637Z,13.40
2018-09-22T07:54:28.689Z,13.60
2018-09-22T07:56:56.746Z,13.80
2018-09-22T07:59:25.737Z,13.70
2018-09-22T08:01:54.021Z,13.90
2018-09-22T08:04:22.085Z,13.60
2018-09-22T08:06:50.190Z,13.70
2018-09-22T08:09:18.301Z,13.50
2018-09-22T08:11:46.420Z,14.10
2018-09-22T08:14:14.434Z,13.90
2018-09-22T08:16:42.534Z,13.80
2018-09-22T08:19:10.589Z,13.70
2018-09-22T08:21:38.634Z,13.70
2018-09-22T08:24:06.822Z,13.90
2018-09-22T08:26:35.319Z,14.10
2018-09-22T08:29:04.870Z,14.10
2018-09-22T08:31:33.246Z,14.30
2018-09-22T08:34:01.317Z,14.50
2018-09-22T08:36:29.684Z,14.40
2018-09-22T08:38:57.720Z,14.30
2018-09-22T08:41:25.842Z,14.30
2018-09-22T08:43:53.935Z,14.30
2018-09-22T08:46:21.982Z,14.50
2018-09-22T08:48:50.070Z,14.60
2018-09-22T08:51:18.150Z,14.30
2018-09-22T08:53:46.226Z,14.00
2018-09-22T08:56:14.277Z,14.10
2018-09-22T08:58:42.416Z,14.10
2018-09-22T09:01:10.488Z,14.00
2018-09-22T09:03:39.584Z,13.90
2018-09-22T09:06:07.835Z,13.90
2018-09-22T09:08:35.933Z,13.90
2018-09-22T09:11:04.018Z,14.00
2018-09-22T09:13:32.079Z,14.20
2018-09-22T09:16:00.137Z,14.30
2018-09-22T09:18:28.239Z,14.40
2018-09-22T09:20:56.354Z,14.50
2018-09-22T09:23:24.453Z,14.50
2018-09-22T09:25:52.721Z,14.40
2018-09-22T09:28:20.773Z,14.50
2018-09-22T09:30:48.835Z,14.70
2018-09-22T09:33:16.897Z,14.70
2018-09-22T09:35:44.945Z,14.70
2018-09-22T09:38:14.045Z,14.80
2018-09-22T09:40:42.112Z,14.70
2018-09-22T09:43:10.194Z,14.80
2018-09-22T09:45:38.223Z,14.70
2018-09-22T09:48:06.414Z,14.70
2018-09-22T09:50:34.479Z,14.90
2018-09-22T09:53:02.574Z,15.00
2018-09-22T09:55:30.622Z,15.00
2018-09-22T09:57:58.691Z,14.90
2018-09-22T10:00:32.127Z,14.90
2018-09-22T10:03:00.193Z,14.70
2018-09-22T10:05:29.070Z,14.60
2018-09-22T10:07:58.167Z,14.70
2018-09-22T10:10:26.218Z,14.80
2018-09-22T10:12:54.523Z,14.80
2018-09-22T10:15:22.577Z,14.90
2018-09-22T10:17:50.667Z,15.10
2018-09-22T10:20:18.768Z,15.20
2018-09-22T10:22:46.791Z,15.20
2018-09-22T10:25:14.885Z,15.10
2018-09-22T10:27:42.963Z,15.00
2018-09-22T10:30:11.158Z,14.90
2018-09-22T10:32:39.221Z,14.70
2018-09-22T10:35:07.389Z,14.60
2018-09-22T10:37:35.454Z,14.60
2018-09-22T10:40:03.542Z,14.80
2018-09-22T10:42:31.612Z,14.90
2018-09-22T10:44:59.679Z,14.90
2018-09-22T10:47:27.749Z,15.00
2018-09-22T10:49:55.827Z,15.10
2018-09-22T10:52:23.873Z,15.20
2018-09-22T10:54:52.078Z,15.20
2018-09-22T10:57:20.133Z,15.30
2018-09-22T10:59:48.194Z,15.40
2018-09-22T11:02:16.238Z,15.50
2018-09-22T11:04:44.289Z,15.40
2018-09-22T11:07:12.352Z,15.40
2018-09-22T11:09:40.436Z,15.60
2018-09-22T11:12:08.495Z,15.80
2018-09-22T11:14:36.557Z,15.60
2018-09-22T11:17:04.611Z,15.30
2018-09-22T11:19:32.663Z,15.30
2018-09-22T11:22:00.717Z,15.40
2018-09-22T11:24:28.773Z,15.40
2018-09-22T11:26:56.883Z,15.50
2018-09-22T11:29:25.016Z,15.70
2018-09-22T11:31:58.660Z,15.70
2018-09-22T11:34:26.737Z,15.80
2018-09-22T11:36:54.795Z,15.80
2018-09-22T11:39:22.865Z,15.70
2018-09-22T11:41:50.921Z,15.70
2018-09-22T11:44:18.981Z,15.60
2018-09-22T11:46:47.038Z,15.60
2018-09-22T11:49:15.112Z,15.60
2018-09-22T11:51:43.169Z,15.50
2018-09-22T11:54:11.242Z,15.40
2018-09-22T11:56:39.289Z,15.50
2018-09-22T11:59:07.367Z,15.60
2018-09-22T12:01:35.426Z,15.70
2018-09-22T12:04:03.537Z,15.70
2018-09-22T12:06:31.669Z,15.70
2018-09-22T12:08:59.679Z,15.60
2018-09-22T12:11:27.738Z,15.60
2018-09-22T12:13:55.816Z,15.50
2018-09-22T12:16:23.835Z,15.50
2018-09-22T12:18:51.893Z,15.40
2018-09-22T12:21:19.980Z,15.20
2018-09-22T12:23:48.524Z,13.80
2018-09-22T12:26:16.589Z,13.00
2018-09-22T12:28:44.661Z,12.50
2018-09-22T12:31:13.576Z,12.30
2018-09-22T12:33:41.656Z,12.20
2018-09-22T12:36:09.790Z,12.20
2018-09-22T12:38:37.834Z,12.40
2018-09-22T12:41:06.239Z,12.30
2018-09-22T12:43:34.294Z,12.10
2018-09-22T12:46:02.449Z,11.90
2018-09-22T12:48:30.413Z,12.00
2018-09-22T12:50:58.483Z,12.00
2018-09-22T12:53:26.518Z,12.20
2018-09-22T12:55:54.566Z,12.30
2018-09-22T12:58:22.779Z,12.30
2018-09-22T13:00:50.834Z,13.00
2018-09-22T13:03:19.018Z,13.50
2018-09-22T13:05:47.094Z,13.30
2018-09-22T13:08:15.142Z,13.40
2018-09-22T13:10:43.209Z,13.30
2018-09-22T13:13:11.276Z,13.20
2018-09-22T13:15:39.338Z,13.30
2018-09-22T13:18:07.398Z,13.20
2018-09-22T13:20:35.470Z,12.90
2018-09-22T13:23:03.522Z,13.00
2018-09-22T13:25:31.577Z,12.50
2018-09-22T13:27:59.761Z,12.20
2018-09-22T13:30:27.888Z,12.20
2018-09-22T13:32:56.838Z,12.20
2018-09-22T13:35:24.932Z,12.20
2018-09-22T13:37:53.057Z,12.10
2018-09-22T13:40:21.282Z,12.20
2018-09-22T13:42:49.498Z,12.20
2018-09-22T13:45:17.581Z,12.20
2018-09-22T13:47:45.722Z,12.30
2018-09-22T13:50:13.865Z,12.50
2018-09-22T13:52:41.949Z,12.50
2018-09-22T13:55:10.094Z,12.50
2018-09-22T13:57:38.287Z,12.70
2018-09-22T14:00:06.374Z,12.70
2018-09-22T14:02:34.563Z,12.70
2018-09-22T14:05:02.636Z,12.80
2018-09-22T14:07:30.765Z,12.90
2018-09-22T14:09:58.872Z,12.80
2018-09-22T14:12:26.957Z,12.80
2018-09-22T14:14:55.085Z,12.80
2018-09-22T14:17:23.968Z,12.90
2018-09-22T14:19:52.218Z,12.90
2018-09-22T14:22:20.361Z,13.00
2018-09-22T14:24:48.444Z,13.00
2018-09-22T14:27:16.583Z,13.10
2018-09-22T14:29:44.978Z,13.00
2018-09-22T14:32:13.062Z,13.10
2018-09-22T14:34:41.207Z,13.10
2018-09-22T14:37:09.460Z,13.10
2018-09-22T14:39:37.645Z,13.20
2018-09-22T14:42:05.708Z,13.20
2018-09-22T14:44:33.777Z,13.20
2018-09-22T14:47:01.881Z,13.20
2018-09-22T14:49:29.954Z,13.10
2018-09-22T14:51:58.037Z,13.10
2018-09-22T14:54:26.422Z,13.10
2018-09-22T14:56:54.601Z,13.10
2018-09-22T14:59:22.717Z,13.20
2018-09-22T15:01:50.926Z,13.30
2018-09-22T15:04:18.994Z,13.20
2018-09-22T15:06:47.041Z,13.20
2018-09-22T15:09:15.427Z,13.30
2018-09-22T15:11:43.481Z,13.30
2018-09-22T15:14:11.514Z,13.20
2018-09-22T15:16:39.604Z,13.20
2018-09-22T15:19:07.657Z,13.20
2018-09-22T15:21:36.358Z,13.20
2018-09-22T15:24:04.689Z,13.20
2018-09-22T15:26:32.733Z,13.20
2018-09-22T15:29:00.823Z,13.20
2018-09-22T15:31:28.917Z,13.10
2018-09-22T15:33:56.964Z,12.90
2018-09-22T15:36:25.006Z,12.70
2018-09-22T15:38:53.077Z,12.70
2018-09-22T15:41:21.144Z,12.70
2018-09-22T15:43:49.297Z,12.70
2018-09-22T15:46:17.329Z,12.70
2018-09-22T15:48:45.407Z,12.80
2018-09-22T15:51:13.564Z,12.90
2018-09-22T15:53:41.622Z,12.90
2018-09-22T15:56:09.674Z,12.90
2018-09-22T15:58:37.709Z,12.90
2018-09-22T16:01:05.866Z,13.00
2018-09-22T16:03:33.939Z,13.00
2018-09-22T16:06:02.000Z,13.10
2018-09-22T16:08:30.116Z,13.10
2018-09-22T16:10:58.145Z,13.20
2018-09-22T16:13:26.239Z,13.20
2018-09-22T16:15:54.436Z,13.20
2018-09-22T16:18:22.793Z,13.20
2018-09-22T16:20:50.898Z,13.30
2018-09-22T16:23:18.938Z,13.40
2018-09-22T16:25:47.078Z,13.30
2018-09-22T16:28:15.150Z,13.30
2018-09-22T16:30:43.245Z,13.30
2018-09-22T16:33:11.480Z,13.20
2018-09-22T16:35:39.791Z,13.20
2018-09-22T16:38:08.691Z,13.20
2018-09-22T16:40:36.729Z,13.60
2018-09-22T16:43:05.199Z,13.60
2018-09-22T16:45:33.262Z,13.30
2018-09-22T16:48:01.389Z,13.20
2018-09-22T16:50:29.480Z,13.20
2018-09-22T16:52:57.544Z,13.20
2018-09-22T16:55:25.607Z,13.20
2018-09-22T16:57:53.693Z,13.20
2018-09-22T17:00:21.751Z,13.10
2018-09-22T17:02:50.309Z,13.10
2018-09-22T17:05:18.363Z,13.00
2018-09-22T17:07:46.432Z,13.00
2018-09-22T17:10:14.520Z,13.00
2018-09-22T17:12:42.656Z,12.90
2018-09-22T17:15:10.706Z,12.90
2018-09-22T17:17:38.818Z,12.80
2018-09-22T17:20:06.909Z,12.80
2018-09-22T17:22:34.991Z,12.90
2018-09-22T17:25:03.097Z,12.80
2018-09-22T17:27:31.226Z,12.70
2018-09-22T17:29:59.221Z,12.80
2018-09-22T17:32:27.369Z,12.80
2018-09-22T17:34:55.440Z,12.80
2018-09-22T17:37:23.515Z,12.80
2018-09-22T17:39:51.772Z,12.70
2018-09-22T17:42:20.059Z,12.70
2018-09-22T17:44:48.318Z,12.60
2018-09-22T17:47:16.481Z,12.50
2018-09-22T17:49:44.545Z,12.50
2018-09-22T17:52:12.626Z,12.60
2018-09-22T17:54:40.689Z,12.60
2018-09-22T17:57:08.773Z,12.60
2018-09-22T17:59:36.934Z,12.70
2018-09-22T18:02:04.941Z,12.70
2018-09-22T18:04:33.010Z,12.60
2018-09-22T18:07:01.290Z,12.70
2018-09-22T18:09:29.390Z,12.70
2018-09-22T18:11:57.467Z,12.60
2018-09-22T18:14:25.510Z,12.60
2018-09-22T18:16:53.624Z,12.60
2018-09-22T18:19:21.646Z,12.60
2018-09-22T18:21:49.720Z,12.70
2018-09-22T18:24:17.775Z,12.60
2018-09-22T18:26:45.818Z,12.70
2018-09-22T18:29:13.894Z,12.70
2018-09-22T18:31:41.944Z,12.60
2018-09-22T18:34:10.050Z,12.60
2018-09-22T18:36:38.125Z,12.60
2018-09-22T18:39:06.858Z,12.60
2018-09-22T18:41:35.153Z,12.60
2018-09-22T18:44:03.203Z,12.60
2018-09-22T18:46:31.245Z,12.50
2018-09-22T18:48:59.314Z,12.40
2018-09-22T18:51:27.438Z,12.40
2018-09-22T18:53:55.474Z,12.40
2018-09-22T18:56:23.544Z,12.30
2018-09-22T18:58:51.608Z,12.30
2018-09-22T19:01:19.703Z,12.30
2018-09-22T19:03:47.811Z,12.30
2018-09-22T19:06:15.883Z,12.30
2018-09-22T19:08:43.980Z,12.30
2018-09-22T19:11:12.063Z,12.30
2018-09-22T19:13:48.869Z,12.20
2018-09-22T19:16:20.645Z,12.10
2018-09-22T19:18:58.784Z,12.10
2018-09-22T19:21:30.689Z,12.20
2018-09-22T19:24:02.914Z,12.10
2018-09-22T19:26:35.162Z,12.00
2018-09-22T19:29:08.550Z,11.90
2018-09-22T19:31:40.331Z,11.90
2018-09-22T19:34:11.663Z,11.90
2018-09-22T19:36:46.668Z,11.90
2018-09-22T19:39:20.834Z,11.80
2018-09-22T19:41:51.805Z,12.60
2018-09-22T19:44:40.009Z,13.30
2018-09-22T19:47:18.105Z,13.50
2018-09-22T19:50:05.024Z,13.20
2018-09-22T19:52:39.324Z,13.30
2018-09-22T19:55:07.377Z,13.20
2018-09-22T19:57:35.507Z,13.80
2018-09-22T20:00:03.544Z,13.20
2018-09-22T20:02:31.818Z,12.70
2018-09-22T20:04:59.875Z,12.10
2018-09-22T20:07:27.924Z,11.90
2018-09-22T20:09:56.023Z,11.60
2018-09-22T20:12:24.094Z,11.40
2018-09-22T20:14:52.183Z,11.40
2018-09-22T20:17:20.309Z,11.40
2018-09-22T20:19:48.310Z,11.30
2018-09-22T20:22:16.376Z,11.30
2018-09-22T20:24:44.463Z,11.30
2018-09-22T20:27:12.533Z,11.30
2018-09-22T20:29:40.732Z,11.20
2018-09-22T20:32:08.918Z,11.20
2018-09-22T20:34:36.971Z,11.20
2018-09-22T20:37:05.154Z,11.20
2018-09-22T20:39:33.206Z,11.10
2018-09-22T20:42:01.292Z,11.10
2018-09-22T20:44:29.408Z,11.10
2018-09-22T20:46:57.453Z,11.00
2018-09-22T20:49:25.503Z,11.00
2018-09-22T20:51:53.609Z,10.90
2018-09-22T20:54:21.672Z,11.00
2018-09-22T20:56:49.790Z,10.90
2018-09-22T20:59:17.873Z,11.60
2018-09-22T21:01:45.950Z,12.00
2018-09-22T21:04:14.081Z,12.60
2018-09-22T21:06:42.283Z,12.40
2018-09-22T21:09:11.559Z,12.40
2018-09-22T21:11:40.291Z,12.40
2018-09-22T21:14:08.399Z,12.60
2018-09-22T21:16:36.563Z,12.40
2018-09-22T21:19:04.793Z,12.20
2018-09-22T21:21:32.865Z,12.50
2018-09-22T21:24:01.006Z,12.60
2018-09-22T21:26:29.119Z,12.30
2018-09-22T21:28:57.178Z,12.20
2018-09-22T21:31:25.259Z,12.50
2018-09-22T21:33:53.312Z,12.10
2018-09-22T21:36:21.487Z,12.00
2018-09-22T21:38:50.052Z,12.50
2018-09-22T21:41:18.139Z,12.20
2018-09-22T21:43:46.230Z,11.90
2018-09-22T21:46:14.395Z,12.00
2018-09-22T21:48:42.437Z,12.10
2018-09-22T21:51:11.029Z,12.30
2018-09-22T21:53:39.456Z,12.60
2018-09-22T21:56:07.726Z,12.30
2018-09-22T21:58:35.763Z,12.10
2018-09-22T22:01:03.833Z,12.30
2018-09-22T22:03:31.878Z,12.70
2018-09-22T22:05:59.958Z,12.20
2018-09-22T22:08:28.037Z,11.90
2018-09-22T22:10:56.109Z,12.10
2018-09-22T22:13:24.195Z,12.30
2018-09-22T22:15:52.314Z,12.10
2018-09-22T22:18:20.381Z,12.00
2018-09-22T22:20:48.438Z,12.30
2018-09-22T22:23:16.514Z,12.60
2018-09-22T22:25:45.828Z,12.80
2018-09-22T22:28:13.874Z,12.40
2018-09-22T22:30:42.497Z,12.70
2018-09-22T22:33:10.634Z,12.20
2018-09-22T22:35:38.685Z,12.10
2018-09-22T22:38:06.780Z,12.20
2018-09-22T22:40:34.824Z,12.00
2018-09-22T22:43:02.924Z,11.90
2018-09-22T22:45:31.398Z,11.20
2018-09-22T22:47:59.456Z,10.80
2018-09-22T22:50:27.655Z,10.70
2018-09-22T22:52:55.703Z,10.60
2018-09-22T22:55:23.969Z,10.50
2018-09-22T22:57:52.029Z,10.50
2018-09-22T23:00:20.204Z,10.40
2018-09-22T23:10:12.327Z,10.40
2018-09-22T23:12:40.364Z,10.40
2018-09-22T23:15:09.193Z,10.50
2018-09-22T23:17:37.282Z,10.70
2018-09-22T23:20:05.344Z,10.60
2018-09-22T23:22:33.449Z,10.50
2018-09-22T23:25:01.524Z,10.50
2018-09-22T23:27:29.573Z,10.50
2018-09-22T23:29:57.685Z,10.50
2018-09-22T23:32:25.767Z,10.40
2018-09-22T23:34:53.959Z,10.50
2018-09-22T23:37:22.023Z,10.40
2018-09-22T23:39:51.106Z,10.40
2018-09-22T23:42:19.190Z,10.40
2018-09-22T23:44:47.471Z,10.40
2018-09-22T23:47:15.525Z,10.40
2018-09-22T23:49:43.785Z,10.30
2018-09-22T23:52:11.846Z,10.30
2018-09-22T23:54:39.885Z,10.20
2018-09-22T23:57:07.987Z,10.30
2018-09-22T23:59:36.046Z,10.40
